createdAt,value
2019-02-15T00:02:24.871Z,31.37
2019-02-15T00:05:27.987Z,28.40
2019-02-15T00:08:31.179Z,28.27
2019-02-15T00:11:34.283Z,27.03
2019-02-15T00:14:46.623Z,28.97
2019-02-15T00:18:24.966Z,26.87
2019-02-15T00:21:30.907Z,32.40
2019-02-15T00:24:34.072Z,28.53
2019-02-15T00:27:37.243Z,29.93
2019-02-15T00:30:40.439Z,30.17
2019-02-15T00:33:43.659Z,25.67
2019-02-15T00:36:46.829Z,28.27
2019-02-15T00:39:50.024Z,26.77
2019-02-15T00:42:53.353Z,27.03
2019-02-15T00:46:03.572Z,25.37
2019-02-15T00:49:07.780Z,28.37
2019-02-15T00:54:17.215Z,27.20
2019-02-15T00:58:31.581Z,26.17
2019-02-15T01:01:39.761Z,28.43
2019-02-15T01:04:51.971Z,29.13
2019-02-15T01:07:59.872Z,27.27
2019-02-15T01:11:12.132Z,28.57
2019-02-15T01:14:15.331Z,28.23
2019-02-15T01:17:18.541Z,27.90
2019-02-15T01:20:21.717Z,28.97
2019-02-15T01:23:24.915Z,26.50
2019-02-15T01:26:35.115Z,35.20
2019-02-15T01:29:43.244Z,28.93
2019-02-15T01:32:52.379Z,28.07
2019-02-15T01:36:02.668Z,26.73
2019-02-15T01:39:13.165Z,25.20
2019-02-15T01:42:23.300Z,27.07
2019-02-15T01:45:32.850Z,26.63
2019-02-15T01:48:36.027Z,27.33
2019-02-15T01:51:39.118Z,26.53
2019-02-15T01:54:42.206Z,24.40
2019-02-15T01:57:45.302Z,28.50
2019-02-15T02:00:48.398Z,27.53
2019-02-15T02:03:51.594Z,28.63
2019-02-15T02:06:54.795Z,26.73
2019-02-15T02:09:57.987Z,27.83
2019-02-15T02:13:01.179Z,29.73
2019-02-15T02:16:04.372Z,27.90
2019-02-15T02:19:07.557Z,28.83
2019-02-15T02:22:10.640Z,27.17
2019-02-15T02:25:13.726Z,32.07
2019-02-15T02:28:16.835Z,26.10
2019-02-15T02:31:20.025Z,30.20
2019-02-15T02:34:23.120Z,30.60
2019-02-15T02:37:26.315Z,29.10
2019-02-15T02:40:29.418Z,30.60
2019-02-15T02:43:32.600Z,32.73
2019-02-15T02:46:35.692Z,31.23
2019-02-15T02:49:38.801Z,28.63
2019-02-15T02:52:41.867Z,26.27
2019-02-15T02:55:44.970Z,28.00
2019-02-15T02:58:48.059Z,28.43
2019-02-15T03:01:51.144Z,27.90
2019-02-15T03:04:54.244Z,25.07
2019-02-15T03:07:57.477Z,29.20
2019-02-15T03:11:00.634Z,29.50
2019-02-15T03:14:11.373Z,30.93
2019-02-15T03:17:06.924Z,28.57
2019-02-15T03:20:10.567Z,28.73
2019-02-15T03:23:13.715Z,29.97
2019-02-15T03:26:16.808Z,23.57
2019-02-15T03:29:19.912Z,27.73
2019-02-15T03:32:23.095Z,26.83
2019-02-15T03:35:26.287Z,27.83
2019-02-15T03:38:40.421Z,30.33
2019-02-15T03:41:43.528Z,30.27
2019-02-15T03:44:46.616Z,29.90
2019-02-15T03:47:49.713Z,31.17
2019-02-15T03:50:52.970Z,28.47
2019-02-15T03:53:56.099Z,27.20
2019-02-15T03:56:59.191Z,26.43
2019-02-15T04:00:02.469Z,28.80
2019-02-15T04:03:05.599Z,27.53
2019-02-15T04:06:08.779Z,28.67
2019-02-15T04:09:11.964Z,26.57
2019-02-15T04:12:15.064Z,29.43
2019-02-15T04:15:18.148Z,26.70
2019-02-15T04:18:21.223Z,33.07
2019-02-15T04:21:24.333Z,29.27
2019-02-15T04:24:27.400Z,30.83
2019-02-15T04:27:30.488Z,29.50
2019-02-15T04:30:33.604Z,30.87
2019-02-15T04:33:36.697Z,32.57
2019-02-15T04:36:39.799Z,26.67
2019-02-15T04:39:42.884Z,31.03
2019-02-15T04:42:45.985Z,31.90
2019-02-15T04:45:49.176Z,29.00
2019-02-15T04:48:52.356Z,29.77
2019-02-15T04:51:55.459Z,28.70
2019-02-15T04:54:58.655Z,28.63
2019-02-15T04:58:01.853Z,29.37
2019-02-15T05:01:04.994Z,32.27
2019-02-15T05:04:08.143Z,27.53
2019-02-15T05:07:11.340Z,30.23
2019-02-15T05:10:14.519Z,25.00
2019-02-15T05:13:17.713Z,15.27
2019-02-15T05:16:20.805Z,16.50
2019-02-15T05:19:23.899Z,13.47
2019-02-15T05:22:26.998Z,11.23
2019-02-15T05:25:30.079Z,10.73
2019-02-15T05:28:33.191Z,19.03
2019-02-15T05:31:36.385Z,25.37
2019-02-15T05:34:39.567Z,27.87
2019-02-15T05:37:42.753Z,23.20
2019-02-15T05:40:45.909Z,25.13
2019-02-15T05:43:49.046Z,21.93
2019-02-15T05:46:52.183Z,23.77
2019-02-15T05:49:55.379Z,23.20
2019-02-15T05:52:58.547Z,24.10
2019-02-15T05:56:01.720Z,27.00
2019-02-15T05:59:04.916Z,23.27
2019-02-15T06:02:08.113Z,23.53
2019-02-15T06:05:11.327Z,24.83
2019-02-15T06:08:14.498Z,24.63
2019-02-15T06:11:17.684Z,23.97
2019-02-15T06:14:20.774Z,24.33
2019-02-15T06:17:23.879Z,28.63
2019-02-15T06:20:27.081Z,26.80
2019-02-15T06:23:30.307Z,26.63
2019-02-15T06:26:34.401Z,27.70
2019-02-15T06:29:37.570Z,27.63
2019-02-15T06:32:40.766Z,22.60
2019-02-15T06:35:43.967Z,26.90
2019-02-15T06:38:47.106Z,28.23
2019-02-15T06:41:50.263Z,27.17
2019-02-15T06:44:53.456Z,25.80
2019-02-15T06:47:56.580Z,25.07
2019-02-15T06:50:59.747Z,26.07
2019-02-15T06:54:02.972Z,26.70
2019-02-15T06:57:06.135Z,27.33
2019-02-15T07:00:14.991Z,27.37
2019-02-15T07:03:21.965Z,24.13
2019-02-15T07:06:25.115Z,27.40
2019-02-15T07:09:28.302Z,24.93
2019-02-15T07:12:31.410Z,21.53
2019-02-15T07:15:34.579Z,22.93
2019-02-15T07:18:37.681Z,24.20
2019-02-15T07:21:40.771Z,22.53
2019-02-15T07:24:43.895Z,24.67
2019-02-15T07:27:47.076Z,24.47
2019-02-15T07:30:50.259Z,21.53
2019-02-15T07:33:53.365Z,24.80
2019-02-15T07:36:56.645Z,27.77
2019-02-15T07:39:59.765Z,28.30
2019-02-15T07:43:02.858Z,25.23
2019-02-15T07:46:06.039Z,28.07
2019-02-15T07:49:09.119Z,26.63
2019-02-15T07:52:12.896Z,27.00
2019-02-15T07:55:16.023Z,25.80
2019-02-15T07:58:19.213Z,29.87
2019-02-15T08:01:22.287Z,25.63
2019-02-15T08:04:25.393Z,23.80
2019-02-15T08:07:28.472Z,24.97
2019-02-15T08:10:31.675Z,23.00
2019-02-15T08:13:34.772Z,22.80
2019-02-15T08:16:38.797Z,24.63
2019-02-15T08:19:41.080Z,30.27
2019-02-15T08:22:44.463Z,28.37
2019-02-15T08:25:47.656Z,24.10
2019-02-15T08:28:50.871Z,24.27
2019-02-15T08:31:54.049Z,24.60
2019-02-15T08:34:57.115Z,25.00
2019-02-15T08:38:00.199Z,25.53
2019-02-15T08:41:03.316Z,28.33
2019-02-15T08:44:06.478Z,30.43
2019-02-15T08:47:09.597Z,25.63
2019-02-15T08:50:12.751Z,25.17
2019-02-15T08:53:15.911Z,30.17
2019-02-15T08:56:19.102Z,35.63
2019-02-15T08:59:22.188Z,29.63
2019-02-15T09:02:25.855Z,24.93
2019-02-15T09:05:29.027Z,28.30
2019-02-15T09:08:32.171Z,26.20
2019-02-15T09:11:35.363Z,28.03
2019-02-15T09:14:38.463Z,24.63
2019-02-15T09:17:41.550Z,25.23
2019-02-15T09:20:44.741Z,27.07
2019-02-15T09:23:47.938Z,26.73
2019-02-15T09:26:51.030Z,27.37
2019-02-15T09:29:54.121Z,24.27
2019-02-15T09:32:57.196Z,23.77
2019-02-15T09:36:00.297Z,17.60
2019-02-15T09:39:04.300Z,17.23
2019-02-15T09:42:07.439Z,12.33
2019-02-15T09:45:11.236Z,12.90
2019-02-15T09:48:14.405Z,13.03
2019-02-15T09:51:17.499Z,12.47
2019-02-15T09:54:20.699Z,11.20
2019-02-15T09:57:23.895Z,10.20
2019-02-15T10:00:26.983Z,12.00
2019-02-15T10:03:30.083Z,14.07
2019-02-15T10:06:33.297Z,13.90
2019-02-15T10:09:36.477Z,11.40
2019-02-15T10:12:39.688Z,13.53
2019-02-15T10:15:42.875Z,9.70
2019-02-15T10:18:45.971Z,13.30
2019-02-15T10:21:49.169Z,13.20
2019-02-15T10:24:52.377Z,11.00
2019-02-15T10:27:56.761Z,10.07
2019-02-15T10:30:59.987Z,11.40
2019-02-15T10:34:03.155Z,11.37
2019-02-15T10:37:06.359Z,10.70
2019-02-15T10:40:09.535Z,10.67
2019-02-15T10:43:12.618Z,10.70
2019-02-15T10:46:15.721Z,10.97
2019-02-15T10:49:18.826Z,12.07
2019-02-15T10:52:22.063Z,13.00
2019-02-15T10:55:25.467Z,12.03
2019-02-15T10:58:28.618Z,12.10
2019-02-15T11:01:32.376Z,10.73
2019-02-15T11:04:35.948Z,13.50
2019-02-15T11:07:39.391Z,11.47
2019-02-15T11:10:42.532Z,9.43
2019-02-15T11:13:45.885Z,11.97
2019-02-15T11:16:49.151Z,12.43
2019-02-15T11:19:52.397Z,10.80
2019-02-15T11:22:55.777Z,10.80
2019-02-15T11:25:58.888Z,10.10
2019-02-15T11:29:01.995Z,18.17
2019-02-15T11:32:05.154Z,9.30
2019-02-15T11:35:09.688Z,10.00
2019-02-15T11:38:12.787Z,9.90
2019-02-15T11:41:15.891Z,10.90
2019-02-15T11:44:19.244Z,9.97
2019-02-15T11:47:22.512Z,13.13
2019-02-15T11:50:25.660Z,8.43
2019-02-15T11:53:28.764Z,10.27
2019-02-15T11:56:32.107Z,9.50
2019-02-15T11:59:35.251Z,8.60
2019-02-15T12:02:38.346Z,8.20
2019-02-15T12:05:41.439Z,10.67
2019-02-15T12:08:44.529Z,6.77
2019-02-15T12:11:47.747Z,8.23
2019-02-15T12:14:50.939Z,11.83
2019-02-15T12:17:54.124Z,11.07
2019-02-15T12:20:57.216Z,10.37
2019-02-15T12:24:00.404Z,8.90
2019-02-15T12:27:03.603Z,11.00
2019-02-15T12:30:07.638Z,9.13
2019-02-15T12:33:10.815Z,8.57
2019-02-15T12:36:14.014Z,8.10
2019-02-15T12:39:17.204Z,7.37
2019-02-15T12:42:20.428Z,6.47
2019-02-15T12:45:23.588Z,7.10
2019-02-15T12:48:26.681Z,8.80
2019-02-15T12:51:29.855Z,6.37
2019-02-15T12:54:32.946Z,4.93
2019-02-15T12:57:36.038Z,5.37
2019-02-15T13:00:39.151Z,6.00
2019-02-15T13:03:42.236Z,5.50
2019-02-15T13:06:46.908Z,8.10
2019-02-15T13:09:48.429Z,4.67
2019-02-15T13:12:51.539Z,5.90
2019-02-15T13:15:54.627Z,4.73
2019-02-15T13:18:57.847Z,6.37
2019-02-15T13:22:00.991Z,5.67
2019-02-15T13:25:04.290Z,4.30
2019-02-15T13:28:07.490Z,5.37
2019-02-15T13:31:10.574Z,5.57
2019-02-15T13:34:13.684Z,4.80
2019-02-15T13:37:16.896Z,5.30
2019-02-15T13:40:19.992Z,4.40
2019-02-15T13:43:23.075Z,5.40
2019-02-15T13:46:26.156Z,5.53
2019-02-15T13:49:29.340Z,5.90
2019-02-15T13:52:32.539Z,5.60
2019-02-15T13:55:35.732Z,6.13
2019-02-15T13:58:38.915Z,11.17
2019-02-15T14:01:42.007Z,7.63
2019-02-15T14:04:45.282Z,7.13
2019-02-15T14:07:48.401Z,8.00
2019-02-15T14:10:51.470Z,6.53
2019-02-15T14:13:54.553Z,9.87
2019-02-15T14:16:57.681Z,7.17
2019-02-15T14:20:00.773Z,7.93
2019-02-15T14:23:03.962Z,6.97
2019-02-15T14:26:07.067Z,7.00
2019-02-15T14:29:11.222Z,8.27
2019-02-15T14:32:14.303Z,6.10
2019-02-15T14:35:17.523Z,6.30
2019-02-15T14:38:20.654Z,7.13
2019-02-15T14:41:23.834Z,9.40
2019-02-15T14:44:26.942Z,6.07
2019-02-15T14:47:30.031Z,7.77
2019-02-15T14:50:33.152Z,7.43
2019-02-15T14:53:36.323Z,6.13
2019-02-15T14:56:39.525Z,8.00
2019-02-15T14:59:42.700Z,9.30
2019-02-15T15:02:45.804Z,8.57
2019-02-15T15:05:49.012Z,7.37
2019-02-15T15:08:52.095Z,7.17
2019-02-15T15:11:55.309Z,8.50
2019-02-15T15:14:58.381Z,6.07
2019-02-15T15:18:12.427Z,5.57
2019-02-15T15:21:04.551Z,10.37
2019-02-15T15:24:07.745Z,7.90
2019-02-15T15:27:10.855Z,8.43
2019-02-15T15:30:13.955Z,8.20
2019-02-15T15:33:17.086Z,7.07
2019-02-15T15:36:20.263Z,7.87
2019-02-15T15:39:23.512Z,8.40
2019-02-15T15:42:26.816Z,8.80
2019-02-15T15:45:30.006Z,8.07
2019-02-15T15:48:33.484Z,8.57
2019-02-15T15:51:36.679Z,7.83
2019-02-15T15:54:39.926Z,11.87
2019-02-15T15:57:43.002Z,7.60
2019-02-15T16:00:46.219Z,7.70
2019-02-15T16:03:49.390Z,7.87
2019-02-15T16:06:52.479Z,7.27
2019-02-15T16:09:55.774Z,6.70
2019-02-15T16:12:58.963Z,7.37
2019-02-15T16:16:02.165Z,7.23
2019-02-15T16:19:05.287Z,9.07
2019-02-15T16:22:08.360Z,8.00
2019-02-15T16:25:11.565Z,8.33
2019-02-15T16:28:14.735Z,11.17
2019-02-15T16:31:17.830Z,15.23
2019-02-15T16:34:20.923Z,7.57
2019-02-15T16:37:24.083Z,8.73
2019-02-15T16:40:27.231Z,9.20
2019-02-15T16:43:30.374Z,11.73
2019-02-15T16:46:33.522Z,7.57
2019-02-15T16:49:36.608Z,8.17
2019-02-15T16:52:39.804Z,11.87
2019-02-15T16:55:42.992Z,10.43
2019-02-15T16:58:46.187Z,10.47
2019-02-15T17:01:49.407Z,13.30
2019-02-15T17:04:52.610Z,12.80
2019-02-15T17:07:55.806Z,15.17
2019-02-15T17:10:58.984Z,15.23
2019-02-15T17:14:02.335Z,13.27
2019-02-15T17:17:05.621Z,14.50
2019-02-15T17:20:08.878Z,13.17
2019-02-15T17:23:12.066Z,14.37
2019-02-15T17:26:15.279Z,12.50
2019-02-15T17:29:18.445Z,12.53
2019-02-15T17:32:21.568Z,15.37
2019-02-15T17:35:24.756Z,11.17
2019-02-15T17:38:27.904Z,11.33
2019-02-15T17:41:31.031Z,15.00
2019-02-15T17:44:34.206Z,15.90
2019-02-15T17:47:37.422Z,18.23
2019-02-15T17:50:40.644Z,14.90
2019-02-15T17:53:43.794Z,13.70
2019-02-15T17:56:47.048Z,11.73
2019-02-15T17:59:50.298Z,12.47
2019-02-15T18:02:53.691Z,13.00
2019-02-15T18:05:56.876Z,12.93
2019-02-15T18:09:00.012Z,15.20
2019-02-15T18:12:03.139Z,18.47
2019-02-15T18:15:06.343Z,20.63
2019-02-15T18:18:09.480Z,26.93
2019-02-15T18:21:12.677Z,23.87
2019-02-15T18:24:15.880Z,19.40
2019-02-15T18:27:19.023Z,15.60
2019-02-15T18:30:22.239Z,14.27
2019-02-15T18:33:25.463Z,17.37
2019-02-15T18:36:28.657Z,15.73
2019-02-15T18:39:31.963Z,15.73
2019-02-15T18:42:35.115Z,17.37
2019-02-15T18:45:38.319Z,18.17
2019-02-15T18:48:41.494Z,16.33
2019-02-15T18:51:44.690Z,14.83
2019-02-15T18:54:47.886Z,15.73
2019-02-15T18:57:50.974Z,15.27
2019-02-15T19:00:54.168Z,15.67
2019-02-15T19:03:57.376Z,13.77
2019-02-15T19:07:00.591Z,12.00
2019-02-15T19:10:03.895Z,15.43
2019-02-15T19:13:07.091Z,16.73
2019-02-15T19:16:10.259Z,15.17
2019-02-15T19:19:13.469Z,17.03
2019-02-15T19:22:16.643Z,14.50
2019-02-15T19:25:19.861Z,15.37
2019-02-15T19:28:23.032Z,15.70
2019-02-15T19:31:26.131Z,16.40
2019-02-15T19:34:29.328Z,14.70
2019-02-15T19:37:32.432Z,16.60
2019-02-15T19:40:35.599Z,15.13
2019-02-15T19:43:38.853Z,18.27
2019-02-15T19:46:41.984Z,14.20
2019-02-15T19:49:45.076Z,18.33
2019-02-15T19:52:48.484Z,15.33
2019-02-15T19:55:51.707Z,15.97
2019-02-15T19:58:54.864Z,16.40
2019-02-15T20:01:57.989Z,14.63
2019-02-15T20:05:01.181Z,14.27
2019-02-15T20:08:04.339Z,15.23
2019-02-15T20:11:07.552Z,16.13
2019-02-15T20:14:10.847Z,15.30
2019-02-15T20:17:14.043Z,13.83
2019-02-15T20:20:17.202Z,17.87
2019-02-15T20:23:20.358Z,14.40
2019-02-15T20:26:23.518Z,15.37
2019-02-15T20:29:26.711Z,19.13
2019-02-15T20:32:29.922Z,17.20
2019-02-15T20:35:33.102Z,16.93
2019-02-15T20:38:36.186Z,14.47
2019-02-15T20:41:39.288Z,16.20
2019-02-15T20:44:42.444Z,16.53
2019-02-15T20:47:45.570Z,21.83
2019-02-15T20:50:48.781Z,19.10
2019-02-15T20:53:52.024Z,21.70
2019-02-15T20:56:55.167Z,21.37
2019-02-15T20:59:58.339Z,22.93
2019-02-15T21:03:01.447Z,14.80
2019-02-15T21:06:04.683Z,13.37
2019-02-15T21:09:08.196Z,14.03
2019-02-15T21:12:11.344Z,14.13
2019-02-15T21:15:14.570Z,13.40
2019-02-15T21:18:17.781Z,12.03
2019-02-15T21:21:20.909Z,12.80
2019-02-15T21:24:24.063Z,11.87
2019-02-15T21:27:27.271Z,11.97
2019-02-15T21:30:30.443Z,12.07
2019-02-15T21:33:33.589Z,12.80
2019-02-15T21:36:36.851Z,13.60
2019-02-15T21:39:40.061Z,11.23
2019-02-15T21:42:43.185Z,13.30
2019-02-15T21:45:46.362Z,12.80
2019-02-15T21:48:49.577Z,12.20
2019-02-15T21:51:53.121Z,14.23
2019-02-15T21:54:56.300Z,12.00
2019-02-15T21:58:01.768Z,12.87
2019-02-15T22:01:02.576Z,16.70
2019-02-15T22:04:05.732Z,15.60
2019-02-15T22:07:08.828Z,20.77
2019-02-15T22:10:11.939Z,18.70
2019-02-15T22:13:15.115Z,18.37
2019-02-15T22:16:18.315Z,21.83
2019-02-15T22:19:21.561Z,16.17
2019-02-15T22:22:24.759Z,16.17
2019-02-15T22:25:27.882Z,19.67
2019-02-15T22:28:31.079Z,20.77
2019-02-15T22:31:34.165Z,21.40
2019-02-15T22:34:37.276Z,15.90
2019-02-15T22:37:40.470Z,13.67
2019-02-15T22:40:44.798Z,14.07
2019-02-15T22:43:48.150Z,12.47
2019-02-15T22:46:52.017Z,11.13
2019-02-15T22:49:55.197Z,11.73
2019-02-15T22:52:58.288Z,12.93
2019-02-15T22:56:01.479Z,16.50
2019-02-15T22:59:04.567Z,15.93
2019-02-15T23:02:07.669Z,15.50
2019-02-15T23:05:10.833Z,15.53
2019-02-15T23:08:14.071Z,13.50
2019-02-15T23:11:17.275Z,12.57
2019-02-15T23:14:20.439Z,9.53
2019-02-15T23:17:23.654Z,11.50
2019-02-15T23:20:26.835Z,12.60
2019-02-15T23:23:30.039Z,10.20
2019-02-15T23:26:33.235Z,13.03
2019-02-15T23:29:36.447Z,12.77
2019-02-15T23:32:39.621Z,14.57
2019-02-15T23:35:42.819Z,19.10
2019-02-15T23:38:46.038Z,14.93
2019-02-15T23:41:49.208Z,12.43
2019-02-15T23:44:52.377Z,15.00
2019-02-15T23:47:55.483Z,14.13
2019-02-15T23:50:58.680Z,13.17
2019-02-15T23:54:01.863Z,12.93
2019-02-15T23:57:05.059Z,12.67
